Map

Track Data

SID SEASON NUMBER BASIN SUBBASIN NAME ISO_TIME NATURE LAT LON WMO_WIND WMO_PRES WMO_AGENCY TRACK_TYPE DIST2LAND LANDFALL IFLAG USA_AGENCY USA_ATCF_ID USA_LAT USA_LON USA_RECORD USA_STATUS USA_WIND USA_PRES USA_SSHS USA_R34_NE USA_R34_SE USA_R34_SW USA_R34_NW USA_R50_NE USA_R50_SE USA_R50_SW USA_R50_NW USA_R64_NE USA_R64_SE USA_R64_SW USA_R64_NW USA_POCI USA_ROCI USA_RMW USA_EYE TOKYO_LAT TOKYO_LON TOKYO_GRADE TOKYO_WIND TOKYO_PRES TOKYO_R50_DIR TOKYO_R50_LONG TOKYO_R50_SHORT TOKYO_R30_DIR TOKYO_R30_LONG TOKYO_R30_SHORT TOKYO_LAND CMA_LAT CMA_LON CMA_CAT CMA_WIND CMA_PRES HKO_LAT HKO_LON HKO_CAT HKO_WIND HKO_PRES NEWDELHI_LAT NEWDELHI_LON NEWDELHI_GRADE NEWDELHI_WIND NEWDELHI_PRES NEWDELHI_CI NEWDELHI_DP NEWDELHI_POCI REUNION_LAT REUNION_LON REUNION_TYPE REUNION_WIND REUNION_PRES REUNION_TNUM REUNION_CI REUNION_RMW REUNION_R34_NE REUNION_R34_SE REUNION_R34_SW REUNION_R34_NW REUNION_R50_NE REUNION_R50_SE REUNION_R50_SW REUNION_R50_NW REUNION_R64_NE REUNION_R64_SE REUNION_R64_SW REUNION_R64_NW BOM_LAT BOM_LON BOM_TYPE BOM_WIND BOM_PRES BOM_TNUM BOM_CI BOM_RMW BOM_R34_NE BOM_R34_SE BOM_R34_SW BOM_R34_NW BOM_R50_NE BOM_R50_SE BOM_R50_SW BOM_R50_NW BOM_R64_NE BOM_R64_SE BOM_R64_SW BOM_R64_NW BOM_ROCI BOM_POCI BOM_EYE BOM_POS_METHOD BOM_PRES_METHOD NADI_LAT NADI_LON NADI_CAT NADI_WIND NADI_PRES WELLINGTON_LAT WELLINGTON_LON WELLINGTON_WIND WELLINGTON_PRES DS824_LAT DS824_LON DS824_STAGE DS824_WIND DS824_PRES TD9636_LAT TD9636_LON TD9636_STAGE TD9636_WIND TD9636_PRES TD9635_LAT TD9635_LON TD9635_WIND TD9635_PRES TD9635_ROCI NEUMANN_LAT NEUMANN_LON NEUMANN_CLASS NEUMANN_WIND NEUMANN_PRES MLC_LAT MLC_LON MLC_CLASS MLC_WIND MLC_PRES USA_GUST BOM_GUST BOM_GUST_PER REUNION_GUST REUNION_GUST_PER USA_SEAHGT USA_SEARAD_NE USA_SEARAD_SE USA_SEARAD_SW USA_SEARAD_NW STORM_SPEED STORM_DIR
1925313N10125 1925 57 WP MM NOT_NAMED 1925-11-09 10:00:00 NR 9.60000 124.700 main 15 11 __________O___ -1 9.60000 124.700 3 5 275
1925313N10125 1925 57 WP MM NOT_NAMED 1925-11-09 12:00:00 NR 9.61689 124.519 main 15 0 __________P___ -1 9.61689 124.519 3 6 276
1925313N10125 1925 57 WP MM NOT_NAMED 1925-11-09 15:00:00 NR 9.64836 124.222 main 0 0 __________P___ -1 9.64836 124.222 3 7 277
1925313N10125 1925 57 WP MM NOT_NAMED 1925-11-09 18:00:00 NR 9.69575 123.858 main 0 0 __________P___ -1 9.69575 123.858 3 8 278
1925313N10125 1925 57 WP MM NOT_NAMED 1925-11-09 21:00:00 NR 9.76851 123.387 main 0 0 __________P___ -1 9.76851 123.387 3 10 279
1925313N10125 1925 57 WP MM NOT_NAMED 1925-11-09 22:00:00 NR 9.80000 123.200 main 10 0 __________O___ -1 9.80000 123.200 4 12 280
1925313N10125 1925 57 WP MM NOT_NAMED 1925-11-10 00:00:00 NR 9.87443 122.775 main 0 0 __________P___ -1 9.87443 122.775 4 14 280
1925313N10125 1925 57 WP MM NOT_NAMED 1925-11-10 03:00:00 NR 10.0049 122.036 main 44 35 __________P___ -1 10.0049 122.036 4 16 280
1925313N10125 1925 57 WP MM NOT_NAMED 1925-11-10 06:00:00 NR 10.1412 121.220 main 83 79 __________P___ -1 10.1412 121.220 4 17 279
1925313N10125 1925 57 WP MM NOT_NAMED 1925-11-10 09:00:00 NR 10.2648 120.378 main 79 49 __________P___ -1 10.2648 120.378 4 17 278
1925313N10125 1925 57 WP MM NOT_NAMED 1925-11-10 10:00:00 NR 10.3000 120.100 main 49 11 __________O___ -1 10.3000 120.100 4 16 276
1925313N10125 1925 57 WP MM NOT_NAMED 1925-11-10 12:00:00 NR 10.3476 119.575 main 11 0 __________P___ -1 10.3476 119.575 4 16 274
1925313N10125 1925 57 WP MM NOT_NAMED 1925-11-10 15:00:00 NR 10.4002 118.788 main 24 31 __________P___ -1 10.4002 118.788 4 15 273
1925313N10125 1925 57 WP MM NOT_NAMED 1925-11-10 18:00:00 NR 10.4414 118.009 main 93 93 __________P___ -1 10.4414 118.009 4 15 273
1925313N10125 1925 57 WP MM NOT_NAMED 1925-11-10 21:00:00 NR 10.4835 117.248 main 159 159 __________P___ -1 10.4835 117.248 4 15 273
1925313N10125 1925 57 WP MM NOT_NAMED 1925-11-10 22:00:00 NR 10.5000 117.000 main 169 169 __________O___ -1 10.5000 117.000 4 14 274
1925313N10125 1925 57 WP MM NOT_NAMED 1925-11-11 00:00:00 NR 10.5383 116.532 main 203 203 __________P___ -1 10.5383 116.532 4 14 275
1925313N10125 1925 57 WP MM NOT_NAMED 1925-11-11 03:00:00 NR 10.6023 115.849 main 266 266 __________P___ -1 10.6023 115.849 4 14 276
1925313N10125 1925 57 WP MM NOT_NAMED 1925-11-11 06:00:00 NR 10.6774 115.164 main 322 331 __________P___ -1 10.6774 115.164 4 14 277
1925313N10125 1925 57 WP MM NOT_NAMED 1925-11-11 09:00:00 NR 10.7666 114.450 main 401 401 __________P___ -1 10.7666 114.450 4 14 277
1925313N10125 1925 57 WP MM NOT_NAMED 1925-11-11 10:00:00 NR 10.8000 114.200 main 419 419 __________O___ -1 10.8000 114.200 4 15 278
1925313N10125 1925 57 WP MM NOT_NAMED 1925-11-11 12:00:00 NR 10.8725 113.680 main 471 405 __________P___ -1 10.8725 113.680 4 16 278
1925313N10125 1925 57 WP MM NOT_NAMED 1925-11-11 15:00:00 NR 10.9928 112.853 main 405 307 __________P___ -1 10.9928 112.853 4 17 279
1925313N10125 1925 57 WP MM NOT_NAMED 1925-11-11 18:00:00 NR 11.1222 111.988 main 307 207 __________P___ -1 11.1222 111.988 4 17 279
1925313N10125 1925 57 WP MM NOT_NAMED 1925-11-11 21:00:00 NR 11.2556 111.099 main 207 176 __________P___ -1 11.2556 111.099 4 18 279
1925313N10125 1925 57 WP MM NOT_NAMED 1925-11-11 22:00:00 NR 11.3000 110.800 main 176 __________O___ -1 11.3000 110.800 4 18 279

Digital Typhoon Data and Search

About IBTrACS Database

This database is a web-friendly format of International Best Track Archive for Climate Stewardship (IBTrACS), a global best track data archive curated by NOAA dating back to 1842.

Updated: 2021-12-06